Time;durP1;ratioP1;P1;durP2;ratioP2;P2;SDS_P1;SDS_P2;PMS_P1;PMS_P2;Temp;Humidity;BMP_temperature;BMP_pressure;BME280_temperature;BME280_humidity;BME280_pressure;Samples;Min_cycle;Max_cycle;Signal;HPM_P1;HPM_P2
2022/05/06 00:01:04;;;;;;;;;17.75;16.75;;;;;15.20;55.07;101803.34;6303500;22;45470;-79
2022/05/06 00:03:29;;;;;;;;;17.25;16.75;;;;;15.21;55.56;101815.59;6303630;22;45782;-79
2022/05/06 00:05:55;;;;;;;;;17.00;14.50;;;;;15.18;55.60;101807.88;6303288;22;46778;-79
2022/05/06 00:08:20;;;;;;;;;13.75;13.00;;;;;15.18;55.41;101816.66;6303633;22;45568;-79
2022/05/06 00:10:46;;;;;;;;;16.50;15.00;;;;;15.08;55.77;101807.72;6303665;22;45671;-79
2022/05/06 00:13:11;;;;;;;;;18.75;14.25;;;;;15.04;55.78;101806.25;6303545;22;45688;-78
2022/05/06 00:15:37;;;;;;;;;16.75;15.00;;;;;14.90;55.80;101790.53;6303893;22;45776;-79
2022/05/06 00:21:24;;;;;;;;;17.25;14.50;;;;;14.91;56.23;101816.81;6298883;22;45561;-78
2022/05/06 00:23:49;;;;;;;;;12.50;12.50;;;;;14.83;56.26;101816.50;6303901;22;45466;-78
2022/05/06 00:26:15;;;;;;;;;16.75;15.75;;;;;14.72;56.62;101803.22;6303394;22;45757;-77
2022/05/06 00:28:40;;;;;;;;;14.25;11.00;;;;;14.65;56.79;101809.84;6274681;22;47604;-79
2022/05/06 00:31:09;;;;;;;;;17.75;14.25;;;;;14.55;56.88;101814.94;6303166;22;45706;-79
2022/05/06 00:36:56;;;;;;;;;16.75;15.25;;;;;14.42;57.78;101811.41;6303333;22;45578;-79
2022/05/06 00:39:21;;;;;;;;;20.75;16.75;;;;;14.39;57.61;101813.44;6303624;22;46393;-79
2022/05/06 00:41:47;;;;;;;;;15.50;13.50;;;;;14.36;57.59;101808.34;6302975;22;45614;-79
2022/05/06 00:44:12;;;;;;;;;18.25;16.25;;;;;14.31;58.00;101806.00;6303702;22;45932;-77
2022/05/06 00:46:38;;;;;;;;;20.00;16.75;;;;;14.29;57.81;101803.47;6274867;22;46319;-79
2022/05/06 00:49:12;;;;;;;;;17.00;16.75;;;;;14.31;58.14;101821.81;6303417;22;46209;-78
2022/05/06 00:51:39;;;;;;;;;19.00;15.50;;;;;14.30;58.17;101817.50;6304039;22;45620;-77
2022/05/06 00:54:06;;;;;;;;;20.50;18.25;;;;;14.27;58.42;101812.44;6304103;22;45618;-76
2022/05/06 00:56:32;;;;;;;;;19.00;16.00;;;;;14.22;58.11;101815.38;6303746;22;45469;-76
2022/05/06 00:58:57;;;;;;;;;20.25;19.00;;;;;14.15;58.60;101802.69;6303709;22;46142;-77
2022/05/06 01:01:23;;;;;;;;;20.00;18.75;;;;;14.19;58.92;101806.84;6303189;22;45588;-77
2022/05/06 01:07:10;;;;;;;;;21.00;18.00;;;;;14.16;58.75;101807.03;6303077;22;45432;-76
2022/05/06 01:09:35;;;;;;;;;18.50;17.75;;;;;14.13;58.96;101796.72;6303127;22;45541;-75
2022/05/06 01:12:02;;;;;;;;;20.00;19.00;;;;;14.21;58.69;101805.78;6303433;22;45360;-77
2022/05/06 01:14:32;;;;;;;;;19.00;15.50;;;;;14.18;58.92;101799.88;6304157;22;45774;-78
2022/05/06 01:16:57;;;;;;;;;12.00;10.75;;;;;14.11;58.76;101791.53;6275369;22;47331;-78
2022/05/06 01:19:23;;;;;;;;;20.50;19.00;;;;;14.14;58.88;101791.31;6303354;22;46419;-78
2022/05/06 01:21:55;;;;;;;;;18.75;16.50;;;;;14.16;58.88;101810.50;6269181;22;45711;-78
2022/05/06 01:24:21;;;;;;;;;19.25;15.75;;;;;14.10;59.27;101789.84;6272317;22;45683;-78
2022/05/06 01:26:55;;;;;;;;;19.25;18.25;;;;;14.16;59.43;101799.97;6271985;22;46468;-78
2022/05/06 01:29:24;;;;;;;;;21.50;19.00;;;;;14.17;59.37;101809.56;6271472;22;46267;-77
2022/05/06 01:31:52;;;;;;;;;18.25;17.00;;;;;14.14;59.22;101801.84;6271653;22;45617;-78
2022/05/06 01:37:42;;;;;;;;;21.75;19.00;;;;;14.11;59.27;101809.13;6271482;22;45437;-77
2022/05/06 01:40:09;;;;;;;;;18.50;17.00;;;;;14.05;59.60;101802.47;6271851;22;45481;-77
2022/05/06 01:42:36;;;;;;;;;18.75;17.00;;;;;14.04;59.41;101797.31;6271614;22;45877;-78
2022/05/06 01:45:03;;;;;;;;;21.50;19.50;;;;;14.05;59.72;101804.25;6272301;22;45470;-78
2022/05/06 01:47:30;;;;;;;;;19.00;17.50;;;;;14.01;59.48;101790.47;6272071;22;45470;-78
2022/05/06 01:49:58;;;;;;;;;23.50;20.00;;;;;14.05;59.86;101799.84;6271842;22;46213;-78
2022/05/06 01:52:25;;;;;;;;;18.50;18.50;;;;;14.01;59.99;101795.72;6271680;22;45582;-79
2022/05/06 01:54:50;;;;;;;;;18.25;18.00;;;;;13.99;59.58;101787.06;6272307;22;45536;-79
2022/05/06 01:57:16;;;;;;;;;18.75;17.75;;;;;13.97;59.91;101790.78;6271845;22;45573;-78
2022/05/06 01:59:41;;;;;;;;;16.75;14.75;;;;;13.92;59.73;101788.44;6272117;22;45689;-78
2022/05/06 02:02:07;;;;;;;;;18.00;17.00;;;;;13.93;59.81;101789.28;6271831;22;45511;-78
2022/05/06 02:07:54;;;;;;;;;25.75;20.25;;;;;14.02;59.87;101807.13;6271757;22;45524;-77
2022/05/06 02:10:21;;;;;;;;;23.50;20.75;;;;;14.00;60.16;101807.22;6271995;22;45559;-78
2022/05/06 02:12:47;;;;;;;;;18.25;18.00;;;;;13.97;59.81;101809.22;6271997;22;45704;-78
2022/05/06 02:15:15;;;;;;;;;20.00;19.25;;;;;13.94;60.13;101802.34;6272257;22;45636;-78
2022/05/06 02:17:41;;;;;;;;;23.75;22.25;;;;;13.92;60.17;101809.53;6271839;22;45482;-78
2022/05/06 02:20:08;;;;;;;;;21.00;19.25;;;;;13.99;59.92;101809.94;6272140;22;45932;-78
2022/05/06 02:22:35;;;;;;;;;29.25;21.00;;;;;14.00;59.80;101807.22;6302208;22;45524;-77
2022/05/06 02:25:01;;;;;;;;;23.75;20.75;;;;;14.01;59.84;101805.41;6303354;22;45518;-77
2022/05/06 02:27:26;;;;;;;;;23.75;20.50;;;;;13.93;60.30;101799.84;6303128;22;46547;-77
2022/05/06 02:38:42;;;;;;;;;24.25;22.25;;;;;13.85;60.52;101805.59;6302321;22;45975;-75
2022/05/06 02:41:08;;;;;;;;;21.75;21.00;;;;;13.83;60.71;101805.69;6302267;22;45815;-77
2022/05/06 02:43:34;;;;;;;;;24.00;20.75;;;;;13.75;60.93;101797.44;6302650;22;45795;-78
2022/05/06 02:45:59;;;;;;;;;20.00;19.00;;;;;13.73;60.87;101796.69;6303257;22;45641;-77
2022/05/06 02:48:24;;;;;;;;;33.50;28.50;;;;;13.77;60.72;101805.22;6302884;22;45650;-77
2022/05/06 02:50:50;;;;;;;;;24.50;22.25;;;;;13.69;60.56;101800.47;6302860;22;45598;-77
2022/05/06 02:53:18;;;;;;;;;23.50;20.25;;;;;13.62;60.72;101793.91;6302469;22;45513;-77
2022/05/06 02:55:44;;;;;;;;;20.50;18.00;;;;;13.62;60.79;101807.06;6303104;22;45465;-77
2022/05/06 02:58:09;;;;;;;;;21.50;20.25;;;;;13.53;61.09;101809.47;6301728;22;46784;-77
2022/05/06 03:00:35;;;;;;;;;22.50;20.25;;;;;13.43;61.21;101804.81;6302682;22;46400;-77
2022/05/06 03:03:00;;;;;;;;;24.50;23.75;;;;;13.32;61.76;101798.53;6302314;22;45661;-77
2022/05/06 03:08:48;;;;;;;;;25.50;20.50;;;;;13.27;62.23;101801.44;6302216;22;46104;-77
2022/05/06 03:11:13;;;;;;;;;25.75;23.75;;;;;13.26;61.89;101801.53;6302077;22;45969;-77
2022/05/06 03:13:38;;;;;;;;;20.75;18.50;;;;;13.27;62.39;101808.50;6302780;22;45441;-76
2022/05/06 03:16:04;;;;;;;;;24.25;22.25;;;;;13.20;62.18;101802.78;6302878;22;45457;-77
2022/05/06 03:18:29;;;;;;;;;25.25;22.50;;;;;13.22;62.27;101814.06;6273471;22;47762;-77
2022/05/06 03:20:54;;;;;;;;;27.50;23.00;;;;;13.17;62.21;101802.13;6301727;22;46758;-78
2022/05/06 03:23:20;;;;;;;;;19.50;17.75;;;;;13.17;62.08;101813.47;6302870;22;45421;-77
2022/05/06 03:25:45;;;;;;;;;22.25;20.25;;;;;13.08;62.38;101808.75;6302793;22;45541;-77
2022/05/06 03:28:11;;;;;;;;;27.75;24.50;;;;;13.04;62.61;101805.47;6302400;22;46643;-76
2022/05/06 03:30:40;;;;;;;;;27.00;24.25;;;;;13.02;62.76;101811.75;6302230;22;45540;-77
2022/05/06 03:33:11;;;;;;;;;26.25;24.00;;;;;13.03;62.81;101816.09;6274794;22;45596;-77
2022/05/06 03:38:58;;;;;;;;;30.25;25.25;;;;;12.96;62.76;101809.50;6303767;22;45978;-78
2022/05/06 03:41:24;;;;;;;;;29.25;23.75;;;;;12.94;63.25;101817.53;6303682;22;45548;-78
2022/05/06 03:43:49;;;;;;;;;29.25;21.00;;;;;12.92;63.28;101811.50;6303689;22;45521;-77
2022/05/06 03:46:14;;;;;;;;;29.00;25.00;;;;;12.95;63.41;101819.22;6303786;22;45608;-77
2022/05/06 03:48:40;;;;;;;;;27.25;25.75;;;;;12.93;63.12;101814.97;6303750;22;46707;-78
2022/05/06 03:51:21;;;;;;;;;30.25;26.50;;;;;12.95;63.04;101813.97;6303334;22;45550;-78
2022/05/06 03:53:50;;;;;;;;;21.75;20.75;;;;;12.98;63.15;101820.78;6303883;22;45564;-78
2022/05/06 03:56:16;;;;;;;;;25.25;21.75;;;;;12.97;62.95;101821.72;6304078;22;45443;-78
2022/05/06 03:58:42;;;;;;;;;28.50;24.25;;;;;12.90;63.29;101816.00;6303623;22;46512;-78
2022/05/06 04:01:07;;;;;;;;;24.50;21.75;;;;;12.94;63.24;101833.31;6303472;22;46319;-78
2022/05/06 04:03:34;;;;;;;;;26.75;22.75;;;;;12.92;63.04;101826.44;6303837;22;45598;-78
2022/05/06 04:09:21;;;;;;;;;25.00;24.50;;;;;12.89;63.76;101829.25;6303586;22;45886;-77
2022/05/06 04:11:46;;;;;;;;;27.00;23.50;;;;;12.85;63.44;101828.59;6303521;22;45509;-77
2022/05/06 04:14:12;;;;;;;;;26.25;23.00;;;;;12.88;63.69;101833.66;6303611;22;45599;-77
2022/05/06 04:16:37;;;;;;;;;26.00;24.00;;;;;12.82;63.54;101823.53;6304035;22;45859;-78
2022/05/06 04:19:02;;;;;;;;;25.25;23.50;;;;;12.77;63.81;101830.00;6303334;22;45671;-78
2022/05/06 04:24:29;;;;;;;;;27.00;22.25;;;;;12.82;63.47;101834.03;6177872;23;45473;-78
2022/05/06 04:26:54;;;;;;;;;28.75;25.75;;;;;12.79;63.83;101831.63;6276502;22;45460;-78
2022/05/06 04:29:19;;;;;;;;;26.25;23.00;;;;;12.76;63.81;101831.78;6274964;22;46441;-78
2022/05/06 04:31:45;;;;;;;;;29.75;23.75;;;;;12.73;63.73;101825.88;6303473;22;45507;-78
2022/05/06 04:34:10;;;;;;;;;24.50;23.00;;;;;12.78;63.69;101836.97;6303587;22;45467;-78
2022/05/06 04:36:40;;;;;;;;;29.25;23.50;;;;;12.72;64.06;101837.31;6303830;22;45770;-78
2022/05/06 04:39:06;;;;;;;;;29.50;23.50;;;;;12.74;63.73;101852.06;6303594;22;46771;-78
2022/05/06 04:41:31;;;;;;;;;26.50;23.75;;;;;12.66;63.88;101840.31;6303364;22;45675;-78
2022/05/06 04:43:57;;;;;;;;;31.75;27.25;;;;;12.71;64.00;101854.03;6302826;22;45514;-78
2022/05/06 04:46:23;;;;;;;;;29.00;24.50;;;;;12.61;63.74;101832.72;6303794;22;45441;-78
2022/05/06 04:48:48;;;;;;;;;33.00;26.00;;;;;12.63;63.93;101842.19;6303615;22;46361;-78
2022/05/06 04:54:35;;;;;;;;;23.00;19.50;;;;;12.65;64.05;101854.41;6303231;22;45635;-78
2022/05/06 04:57:01;;;;;;;;;23.00;20.25;;;;;12.63;64.29;101865.03;6303757;22;45535;-78
2022/05/06 04:59:27;;;;;;;;;28.50;25.25;;;;;12.60;64.28;101860.78;6303137;22;47087;-78
2022/05/06 05:01:52;;;;;;;;;27.00;23.00;;;;;12.53;64.31;101850.72;6303162;22;46427;-79
2022/05/06 05:04:18;;;;;;;;;28.25;24.00;;;;;12.55;64.23;101864.63;6303280;22;45469;-78
2022/05/06 05:10:05;;;;;;;;;30.25;28.00;;;;;12.48;64.46;101866.75;6302965;22;45971;-78
2022/05/06 05:12:31;;;;;;;;;29.25;24.00;;;;;12.51;64.14;101877.09;6302711;22;47681;-78
2022/05/06 05:14:56;;;;;;;;;23.50;21.50;;;;;12.55;64.46;101872.50;6275429;22;45656;-78
2022/05/06 05:17:22;;;;;;;;;31.75;26.00;;;;;12.52;64.56;101864.81;6303914;22;45580;-78
2022/05/06 05:19:47;;;;;;;;;32.75;28.00;;;;;12.56;64.90;101866.31;6303386;22;45594;-79
2022/05/06 05:22:13;;;;;;;;;27.25;23.50;;;;;12.57;64.40;101857.50;6302341;22;46157;-78
2022/05/06 05:24:38;;;;;;;;;29.25;27.50;;;;;12.55;64.75;101851.47;6303526;22;45508;-79
2022/05/06 05:27:04;;;;;;;;;34.75;29.25;;;;;12.56;64.54;101859.28;6303482;22;45668;-79
2022/05/06 05:29:29;;;;;;;;;23.75;21.75;;;;;12.56;64.15;101854.03;6303503;22;46353;-78
2022/05/06 05:31:55;;;;;;;;;24.00;22.00;;;;;12.50;64.89;101857.00;6303152;22;46336;-78
2022/05/06 05:34:21;;;;;;;;;29.00;26.50;;;;;12.53;64.60;101858.59;6303455;22;45569;-77
2022/05/06 05:40:10;;;;;;;;;26.25;23.25;;;;;12.63;64.49;101868.47;6303182;22;45874;-77
2022/05/06 05:42:35;;;;;;;;;30.75;25.50;;;;;12.66;64.56;101870.09;6302797;22;46173;-78
2022/05/06 05:50:29;;;;;;;;;29.75;26.00;;;;;12.77;64.24;101885.22;6302718;22;45509;-77
2022/05/06 05:52:55;;;;;;;;;27.50;24.50;;;;;12.76;64.52;101880.91;6303230;22;46024;-78
2022/05/06 05:55:21;;;;;;;;;32.50;29.00;;;;;12.80;64.58;101888.50;6303021;22;45641;-78
2022/05/06 05:57:47;;;;;;;;;25.75;24.75;;;;;12.82;64.54;101891.06;6302977;22;45495;-79
2022/05/06 06:00:13;;;;;;;;;33.00;28.50;;;;;12.82;64.51;101880.53;6274947;22;47184;-78
2022/05/06 06:02:38;;;;;;;;;29.75;25.00;;;;;12.81;64.25;101876.22;6302373;22;46090;-77
2022/05/06 06:05:04;;;;;;;;;35.50;29.50;;;;;12.86;64.75;101876.78;6302559;22;45604;-77
2022/05/06 06:07:30;;;;;;;;;32.75;29.75;;;;;12.87;64.58;101866.16;6303021;22;45667;-77
2022/05/06 06:09:55;;;;;;;;;31.50;28.00;;;;;12.88;64.17;101873.13;6302710;22;46278;-77
2022/05/06 06:12:20;;;;;;;;;28.25;24.00;;;;;12.93;64.15;101872.84;6302585;22;45560;-78
2022/05/06 06:14:46;;;;;;;;;32.50;29.00;;;;;12.98;64.51;101866.38;6302175;22;45500;-77
2022/05/06 06:17:12;;;;;;;;;24.25;23.00;;;;;13.01;64.11;101870.56;6302975;22;45530;-76
2022/05/06 06:19:38;;;;;;;;;33.00;27.50;;;;;13.06;64.12;101862.44;6302259;22;45590;-76
2022/05/06 06:25:26;;;;;;;;;33.50;30.25;;;;;13.19;64.16;101871.28;6302358;22;45728;-77
2022/05/06 06:27:51;;;;;;;;;33.00;29.75;;;;;13.21;64.23;101875.53;6302426;22;45459;-77
2022/05/06 06:30:17;;;;;;;;;33.75;30.50;;;;;13.28;63.97;101878.63;6302485;22;46440;-77
2022/05/06 06:32:42;;;;;;;;;35.50;29.25;;;;;13.31;63.96;101867.91;6302281;22;46100;-75
2022/05/06 06:35:07;;;;;;;;;30.00;26.75;;;;;13.30;63.97;101864.41;6303345;22;45530;-76
2022/05/06 06:40:55;;;;;;;;;34.75;27.00;;;;;13.43;63.54;101881.16;6302196;22;45897;-77
2022/05/06 06:43:20;;;;;;;;;29.50;26.75;;;;;13.50;63.48;101884.22;6302017;22;45967;-76
2022/05/06 06:45:45;;;;;;;;;41.25;33.75;;;;;13.58;63.87;101878.47;6301820;22;45660;-78
2022/05/06 06:48:11;;;;;;;;;35.25;28.75;;;;;13.60;64.06;101879.25;6302602;22;45491;-77
2022/05/06 06:50:39;;;;;;;;;37.75;30.50;;;;;13.66;63.74;101884.09;6273673;22;46170;-77
2022/05/06 06:53:04;;;;;;;;;34.00;32.25;;;;;13.73;63.28;101882.75;6302652;22;45552;-77
2022/05/06 06:55:30;;;;;;;;;28.50;26.25;;;;;13.73;63.57;101869.59;6273928;22;45643;-77
2022/05/06 06:57:55;;;;;;;;;38.25;33.00;;;;;13.80;63.16;101878.81;6274268;22;45564;-77
2022/05/06 07:00:20;;;;;;;;;38.00;31.75;;;;;13.89;63.14;101875.56;6274037;22;47469;-75
2022/05/06 07:02:46;;;;;;;;;34.50;32.50;;;;;13.91;63.18;101871.06;6301198;22;45997;-77
2022/05/06 07:05:11;;;;;;;;;30.00;27.25;;;;;13.98;62.96;101882.88;6302134;22;45567;-78
2022/05/06 07:13:42;;;;;;;;;34.25;30.50;;;;;14.11;62.88;101882.94;6302918;22;45749;-77
2022/05/06 07:16:07;;;;;;;;;34.00;31.50;;;;;14.12;62.55;101879.34;6303012;22;45693;-77
2022/05/06 07:18:33;;;;;;;;;35.75;29.25;;;;;14.19;62.74;101888.56;6303063;22;45692;-77
2022/05/06 07:20:58;;;;;;;;;29.75;27.50;;;;;14.22;62.63;101897.09;6302095;22;46659;-77
2022/05/06 07:23:24;;;;;;;;;26.75;24.00;;;;;14.26;62.63;101893.31;6302749;22;45543;-78
2022/05/06 07:25:49;;;;;;;;;32.75;27.00;;;;;14.31;62.62;101893.00;6274470;22;45490;-77
2022/05/06 07:28:14;;;;;;;;;29.00;24.00;;;;;14.36;62.59;101893.53;6303170;22;45440;-76
2022/05/06 07:30:40;;;;;;;;;32.00;27.75;;;;;14.38;62.29;101891.69;6302769;22;46595;-77
2022/05/06 07:33:05;;;;;;;;;30.25;25.75;;;;;14.43;62.35;101892.22;6274428;22;48273;-76
2022/05/06 07:35:31;;;;;;;;;28.00;24.25;;;;;14.49;62.21;101897.09;6302964;22;45577;-75
2022/05/06 07:41:18;;;;;;;;;31.75;27.75;;;;;14.62;61.48;101899.75;6302381;22;45954;-77
2022/05/06 07:43:43;;;;;;;;;26.50;24.75;;;;;14.67;61.62;101903.78;6302718;22;45464;-77
2022/05/06 07:46:09;;;;;;;;;30.75;25.25;;;;;14.67;61.26;101903.78;6302878;22;45466;-78
2022/05/06 07:48:35;;;;;;;;;31.50;25.50;;;;;14.76;61.41;101906.72;6303076;22;45446;-77
2022/05/06 07:51:01;;;;;;;;;26.50;24.00;;;;;14.80;61.01;101916.13;6302765;22;45450;-77
2022/05/06 07:53:26;;;;;;;;;25.50;22.25;;;;;14.80;60.86;101903.78;6302889;22;45536;-79
2022/05/06 07:55:52;;;;;;;;;27.50;25.50;;;;;14.76;60.84;101883.00;6303104;22;45392;-77
2022/05/06 07:58:17;;;;;;;;;25.00;22.50;;;;;14.89;60.75;101891.75;6303034;22;45355;-77
2022/05/06 08:00:43;;;;;;;;;28.75;25.00;;;;;14.96;60.80;101895.66;6302571;22;46496;-76
2022/05/06 08:05:57;;;;;;;;;30.25;25.75;;;;;15.05;60.64;101889.75;6302392;22;45846;-76
2022/05/06 08:11:43;;;;;;;;;33.75;27.00;;;;;15.18;60.18;101889.72;6302173;22;45529;-76
2022/05/06 08:14:09;;;;;;;;;30.75;26.00;;;;;15.22;60.62;101896.50;6302407;22;46070;-76
2022/05/06 08:16:34;;;;;;;;;28.75;26.25;;;;;15.26;59.97;101892.69;6274329;22;45628;-77
2022/05/06 08:19:00;;;;;;;;;21.75;20.25;;;;;15.30;60.18;101899.44;6302813;22;45493;-77
2022/05/06 08:21:25;;;;;;;;;24.00;20.75;;;;;15.29;59.73;101893.31;6303147;22;45704;-78
2022/05/06 08:23:52;;;;;;;;;24.25;21.25;;;;;15.38;59.68;101889.19;6303200;22;47130;-77
2022/05/06 08:26:18;;;;;;;;;24.75;23.00;;;;;15.44;59.46;101894.88;6303751;22;45591;-77
2022/05/06 08:28:43;;;;;;;;;25.50;22.25;;;;;15.47;59.55;101884.09;6303398;22;45717;-77
2022/05/06 08:31:08;;;;;;;;;26.25;23.00;;;;;15.55;59.10;101890.69;6303434;22;46507;-77
2022/05/06 08:33:34;;;;;;;;;30.50;25.00;;;;;15.59;59.27;101884.22;6303552;22;46260;-77
2022/05/06 08:36:00;;;;;;;;;23.00;21.25;;;;;15.64;59.25;101892.66;6302915;22;45556;-76
2022/05/06 08:41:48;;;;;;;;;24.75;23.00;;;;;15.72;58.90;101896.41;6303224;22;45621;-77
2022/05/06 08:52:49;;;;;;;;;25.75;23.50;;;;;15.94;58.42;101880.69;6147573;23;45757;-79
2022/05/06 08:55:14;;;;;;;;;26.75;21.75;;;;;16.02;58.02;101879.31;6148042;23;46062;-78
2022/05/06 08:57:40;;;;;;;;;20.75;19.00;;;;;16.07;58.11;101891.22;6220161;22;45573;-79
2022/05/06 09:00:06;;;;;;;;;20.75;19.75;;;;;16.12;57.58;101888.22;6303507;22;45407;-78
2022/05/06 09:02:32;;;;;;;;;18.25;17.50;;;;;16.17;57.44;101886.09;6302588;22;45607;-79
2022/05/06 09:04:57;;;;;;;;;18.25;18.00;;;;;16.22;57.37;101884.78;6303432;22;45999;-77
2022/05/06 09:07:25;;;;;;;;;19.25;16.75;;;;;16.23;56.99;101872.41;6302789;22;45680;-77
2022/05/06 09:10:09;;;;;;;;;18.25;17.25;;;;;16.34;56.49;101875.09;6303131;22;45630;-76
2022/05/06 09:12:44;;;;;;;;;19.00;17.00;;;;;16.38;56.71;101885.34;6302772;22;45757;-77
2022/05/06 09:17:59;;;;;;;;;16.50;15.00;;;;;16.46;56.78;101873.34;6302691;22;45797;-77
2022/05/06 09:20:27;;;;;;;;;17.00;16.00;;;;;16.52;56.26;101879.00;6302899;22;45682;-74
2022/05/06 09:22:54;;;;;;;;;18.25;16.50;;;;;16.60;56.63;101878.47;6303192;22;45567;-80
2022/05/06 09:25:42;;;;;;;;;15.00;14.25;;;;;16.62;56.27;101861.53;6303438;22;46324;-80
2022/05/06 09:28:29;;;;;;;;;18.25;16.00;;;;;16.70;56.03;101863.56;6303573;22;45561;-78
2022/05/06 09:31:05;;;;;;;;;18.50;15.00;;;;;16.74;56.17;101860.56;6303235;22;45424;-78
2022/05/06 09:33:34;;;;;;;;;11.00;10.25;;;;;16.84;55.75;101860.72;6276638;22;46518;-79
2022/05/06 09:36:23;;;;;;;;;12.75;12.00;;;;;16.92;55.40;101868.03;6304176;22;45969;-78
2022/05/06 09:39:07;;;;;;;;;13.00;11.75;;;;;17.00;55.73;101857.72;6304372;22;45498;-78
2022/05/06 09:41:41;;;;;;;;;13.00;11.75;;;;;17.06;55.00;101855.41;6303952;22;45639;-78
2022/05/06 09:44:09;;;;;;;;;13.25;12.00;;;;;17.10;54.97;101856.88;6303003;22;45579;-78
2022/05/06 09:46:35;;;;;;;;;12.25;12.25;;;;;17.18;54.63;101849.16;6303286;22;46084;-77
2022/05/06 09:49:02;;;;;;;;;12.00;11.25;;;;;17.20;54.14;101855.19;6303395;22;45538;-78
2022/05/06 09:51:29;;;;;;;;;12.75;12.00;;;;;17.27;54.24;101860.84;6303167;22;45487;-80
2022/05/06 09:53:56;;;;;;;;;11.00;10.00;;;;;17.24;53.89;101847.81;6303298;22;45696;-78
2022/05/06 09:56:22;;;;;;;;;14.00;13.00;;;;;17.35;53.50;101849.63;6274699;22;47434;-79
2022/05/06 09:58:51;;;;;;;;;15.25;13.75;;;;;17.34;53.70;101837.34;6302786;22;45877;-81
2022/05/06 10:01:18;;;;;;;;;13.00;11.75;;;;;17.47;53.09;101851.31;6302556;22;45574;-81
2022/05/06 10:03:44;;;;;;;;;11.00;9.50;;;;;17.52;52.79;101854.41;6302917;22;45844;-78
2022/05/06 10:06:10;;;;;;;;;16.00;11.00;;;;;17.50;52.80;101845.75;6302622;22;46382;-77
2022/05/06 10:08:38;;;;;;;;;14.00;12.75;;;;;17.55;52.50;101841.75;6302839;22;45574;-78
2022/05/06 10:11:12;;;;;;;;;9.50;9.25;;;;;17.59;51.99;101831.78;6302458;22;45688;-79
2022/05/06 10:13:45;;;;;;;;;9.00;8.00;;;;;17.64;51.90;101834.06;6302981;22;45647;-79
2022/05/06 10:16:11;;;;;;;;;10.00;9.00;;;;;17.66;52.34;101832.13;6302581;22;45899;-78
2022/05/06 10:18:44;;;;;;;;;12.25;10.50;;;;;17.80;52.40;101843.31;6274757;22;45604;-79
2022/05/06 10:21:11;;;;;;;;;13.75;12.75;;;;;17.79;51.94;101828.34;6302796;22;45621;-79
2022/05/06 10:23:54;;;;;;;;;13.75;11.75;;;;;17.93;51.96;101841.31;6302728;22;46652;-81
2022/05/06 10:26:40;;;;;;;;;10.50;10.00;;;;;18.02;51.12;101839.72;6302429;22;45955;-79
2022/05/06 10:34:55;;;;;;;;;10.50;10.00;;;;;18.16;49.30;101847.38;6302244;22;46041;-79
2022/05/06 10:40:58;;;;;;;;;10.50;10.25;;;;;18.22;49.63;101830.94;6302030;22;45551;-79
2022/05/06 10:43:39;;;;;;;;;10.50;10.00;;;;;18.27;49.48;101831.41;6301989;22;45503;-80
2022/05/06 10:46:05;;;;;;;;;10.00;9.00;;;;;18.27;49.64;101819.94;6302409;22;45551;-78
2022/05/06 10:48:31;;;;;;;;;10.50;9.00;;;;;18.36;49.08;101827.13;6302530;22;46056;-78
2022/05/06 10:51:27;;;;;;;;;10.75;10.75;;;;;18.40;48.95;101829.41;6302396;22;45520;-80
2022/05/06 10:57:16;;;;;;;;;12.00;11.00;;;;;18.50;48.37;101820.66;6303633;22;45876;-75
2022/05/06 11:00:03;;;;;;;;;12.00;11.25;;;;;18.56;48.42;101818.38;6302733;22;46432;-78
2022/05/06 11:02:31;;;;;;;;;13.50;11.00;;;;;18.64;48.46;101820.34;6305096;22;45531;-83
2022/05/06 11:04:58;;;;;;;;;10.00;9.75;;;;;18.73;48.61;101817.75;6303505;22;45454;-80
2022/05/06 11:07:25;;;;;;;;;9.50;9.50;;;;;18.78;47.83;101817.38;6302774;22;45609;-78
2022/05/06 11:13:12;;;;;;;;;11.00;11.00;;;;;18.88;47.56;101810.28;6302309;22;45755;-76
2022/05/06 11:15:37;;;;;;;;;7.50;6.25;;;;;18.95;47.28;101810.59;6303170;22;45651;-77
2022/05/06 11:18:05;;;;;;;;;10.50;10.00;;;;;18.91;47.46;101801.19;6302006;22;46109;-78
2022/05/06 11:20:36;;;;;;;;;9.75;9.75;;;;;19.02;47.24;101807.25;6301492;22;45633;-79
2022/05/06 11:23:07;;;;;;;;;12.25;11.50;;;;;19.10;47.41;101804.78;6302254;22;45438;-84
2022/05/06 11:25:34;;;;;;;;;12.25;12.00;;;;;19.16;46.42;101803.41;6302737;22;45658;-79
2022/05/06 11:28:03;;;;;;;;;10.50;10.50;;;;;19.18;46.35;101798.78;6274054;22;47606;-78
2022/05/06 11:30:30;;;;;;;;;11.00;10.50;;;;;19.21;46.26;101793.22;6301986;22;46220;-81
2022/05/06 11:33:00;;;;;;;;;10.50;10.00;;;;;19.22;46.49;101784.22;6302211;22;45626;-78
2022/05/06 11:35:30;;;;;;;;;13.00;12.00;;;;;19.35;45.74;101798.13;6302246;22;45533;-81
2022/05/06 11:37:55;;;;;;;;;10.00;10.00;;;;;19.39;45.76;101790.72;6302089;22;46610;-80
2022/05/06 11:40:36;;;;;;;;;8.50;8.25;;;;;19.37;45.95;101776.75;6273218;22;46594;-81
2022/05/06 11:43:21;;;;;;;;;11.00;9.25;;;;;19.45;45.92;101790.19;6301884;22;45691;-78
2022/05/06 11:48:41;;;;;;;;;11.00;11.00;;;;;19.52;45.99;101784.22;6301314;22;45523;-77
2022/05/06 11:51:10;;;;;;;;;11.00;10.50;;;;;19.58;45.91;101786.31;6301470;22;45914;-78
2022/05/06 11:53:37;;;;;;;;;10.00;10.00;;;;;19.60;45.19;101783.50;6302749;22;45758;-77
2022/05/06 11:56:03;;;;;;;;;9.75;9.75;;;;;19.66;45.51;101796.25;6304057;22;45538;-78
2022/05/06 11:58:29;;;;;;;;;13.00;11.00;;;;;19.69;44.58;101782.69;6303953;22;46273;-78
2022/05/06 12:00:55;;;;;;;;;9.50;9.50;;;;;19.75;45.24;101782.13;6303591;22;45913;-78
2022/05/06 12:03:22;;;;;;;;;9.25;9.00;;;;;19.80;44.61;101785.22;6303642;22;45555;-77
2022/05/06 12:06:02;;;;;;;;;10.25;9.25;;;;;19.87;44.46;101781.00;6303259;22;45778;-78
2022/05/06 12:08:31;;;;;;;;;9.50;9.00;;;;;19.90;44.29;101770.09;6306277;22;45858;-78
2022/05/06 12:11:04;;;;;;;;;9.00;8.00;;;;;19.99;42.98;101779.88;6326044;22;45951;-79
2022/05/06 12:13:35;;;;;;;;;8.75;8.75;;;;;20.02;43.29;101787.59;6326979;22;45232;-78
2022/05/06 12:16:14;;;;;;;;;7.25;7.00;;;;;20.07;42.99;101781.84;6300506;22;45226;-78
2022/05/06 12:18:58;;;;;;;;;7.75;7.00;;;;;20.14;43.28;101774.94;6329201;22;45718;-78
2022/05/06 12:21:25;;;;;;;;;6.00;6.00;;;;;20.11;42.93;101765.44;6326738;22;46355;-78
2022/05/06 12:23:56;;;;;;;;;8.00;8.00;;;;;20.20;42.33;101766.38;6292718;22;45628;-79
2022/05/06 12:26:28;;;;;;;;;6.00;4.75;;;;;20.27;42.25;101779.97;6304026;22;45688;-79
2022/05/06 12:28:53;;;;;;;;;6.50;6.50;;;;;20.32;42.45;101767.09;6303084;22;46039;-79
2022/05/06 12:31:29;;;;;;;;;7.00;6.75;;;;;20.39;42.41;101786.84;6303311;22;45596;-78
2022/05/06 12:34:08;;;;;;;;;6.25;6.00;;;;;20.46;42.37;101778.13;6302998;22;45588;-78
2022/05/06 12:36:35;;;;;;;;;7.50;5.75;;;;;20.51;42.14;101762.56;6303822;22;45681;-78
2022/05/06 12:39:00;;;;;;;;;8.00;7.75;;;;;20.58;41.96;101770.81;6303453;22;46628;-78
2022/05/06 12:41:27;;;;;;;;;6.25;5.50;;;;;20.65;41.78;101771.06;6303216;22;45799;-79
2022/05/06 12:43:57;;;;;;;;;6.75;5.75;;;;;20.72;40.23;101761.53;6303601;22;45431;-78
2022/05/06 12:46:30;;;;;;;;;6.25;5.50;;;;;20.66;40.76;101748.78;6303810;22;45651;-78
2022/05/06 12:51:43;;;;;;;;;5.25;5.25;;;;;20.79;40.79;101752.78;6302927;22;45623;-78
2022/05/06 12:54:10;;;;;;;;;4.25;3.50;;;;;20.91;40.96;101758.75;6303541;22;45464;-78
2022/05/06 12:56:36;;;;;;;;;6.00;6.00;;;;;20.97;40.24;101757.34;6303785;22;45532;-79
2022/05/06 12:59:03;;;;;;;;;4.00;4.00;;;;;21.04;40.54;101756.59;6275244;22;46424;-78
2022/05/06 13:01:28;;;;;;;;;6.00;6.00;;;;;21.13;40.23;101760.19;6303388;22;46313;-78
2022/05/06 13:03:54;;;;;;;;;3.25;3.25;;;;;21.17;39.99;101756.25;6303205;22;45572;-78
2022/05/06 13:06:19;;;;;;;;;5.00;4.25;;;;;21.25;39.76;101753.69;6303676;22;45553;-78